Terminal Aerodrome Forecast
Issued by NWS

Home | Current Version | Previous Version | Text Only | Print | Product List | Glossary On
Versions: 1 2 3 4 5 6 7 8 9 10 11 12 13 14 15 16
000
FTUS43 KILX 230500
TAFDEC
TAF
KDEC 230520Z 2306/2406 24005KT P6SM VCTS BKN035CB
     FM230900 27004KT 5SM BR SCT025
      TEMPO 2309/2311 BKN025
     FM231100 32006KT P6SM SCT250
     FM231500 02010KT P6SM SCT060
     FM240200 03007KT P6SM SKC
      AMD NOT SKED TIL 231100=

USA.gov is the U.S. government's official web portal to all federal, state and local government web resources and services.